Dragocidental — CSYN4 — position and weather

sailwx.info

Track history (hours):
 
Tides and Currents Weather Stations Pressure Air Temp Water Temp Dewpoint Dewpoint Depression Visibility Wind Speed Wind Dir Waves Ship Positions

Dragocidental

Last reported at 2016-Jul-27 21:33 UTC. Time now 2016-Jul-28 01:00 UTC.
Position N 37°34' W 025°30'.

Length 30 m.

Type: Dredging. MMSI: 204671360.

Date/timePositionNaut miles runAvg speedWind from/ knotsBaromVisibWave heightAir tempDewpointWater temp
2016-Jul-27 21:33N 37°34' W 025°30'6 5.7
2016-Jul-27 20:34N 37°29' W 025°25'6 5.9
2016-Jul-27 19:33N 37°24' W 025°21'6 5.7
2016-Jul-27 18:33N 37°20' W 025°17'5 5.2
2016-Jul-27 17:33N 37°15' W 025°14'5 5.0
2016-Jul-27 16:33N 37°11' W 025°10'5 5.1
2016-Jul-27 15:33N 37°07' W 025°07'5 5.4
2016-Jul-27 14:33N 37°02' W 025°03'5 4.9
2016-Jul-27 13:34N 36°58' W 025°01'6 1.9
2016-Jul-27 10:33N 36°56' W 025°07'1 1.4
2016-Jul-27 09:31N 36°57' W 025°09'0 0.1
2016-Jul-27 08:33N 36°57' W 025°09'0 0.1
2016-Jul-27 07:31N 36°57' W 025°09'0 0.0
2016-Jul-27 06:28N 36°57' W 025°09'0 0.0
2016-Jul-27 05:31N 36°57' W 025°09'0 0.0
2016-Jul-27 04:31N 36°57' W 025°09'0 0.0
2016-Jul-27 03:31N 36°57' W 025°09'0 0.0
2016-Jul-27 02:31N 36°57' W 025°09'0 0.0
2016-Jul-27 01:31N 36°57' W 025°09'0 0.0
2016-Jul-27 00:31N 36°57' W 025°09'0 0.0
2016-Jul-26 23:31N 36°57' W 025°09'0 0.0
2016-Jul-26 22:31N 36°57' W 025°09'0 0.0
2016-Jul-26 21:31N 36°57' W 025°09'0 0.2
2016-Jul-26 20:33N 36°56' W 025°09'5 5.0
2016-Jul-26 19:33N 37°01' W 025°12'6 5.5
2016-Jul-26 18:33N 37°06' W 025°14'5 5.3
2016-Jul-26 17:33N 37°11' W 025°17'5 5.1
2016-Jul-26 16:33N 37°16' W 025°19'5 4.9
2016-Jul-26 15:33N 37°20' W 025°22'6 5.6
2016-Jul-26 14:33N 37°25' W 025°24'6 5.7
2016-Jul-26 13:34N 37°30' W 025°27'5 5.2
2016-Jul-26 12:33N 37°35' W 025°31'5 5.2
2016-Jul-26 11:33N 37°39' W 025°35'5 5.2
2016-Jul-26 10:34N 37°43' W 025°38'1 1.4
2016-Jul-26 09:32N 37°44' W 025°40'0 0.0
2016-Jul-26 08:29N 37°44' W 025°40'0 0.0
2016-Jul-26 07:31N 37°44' W 025°40'0 0.0
2016-Jul-26 06:31N 37°44' W 025°40'0 0.0
2016-Jul-26 05:32N 37°44' W 025°40'0 0.0
2016-Jul-26 04:32N 37°44' W 025°40'0 0.0
2016-Jul-26 03:32N 37°44' W 025°40'0 0.0
2016-Jul-26 02:29N 37°44' W 025°40'0 0.0
2016-Jul-26 01:31N 37°44' W 025°40'0 0.0
2016-Jul-26 00:32N 37°44' W 025°40'0 0.0
2016-Jul-25 23:31N 37°44' W 025°40'0 0.0
2016-Jul-25 22:32N 37°44' W 025°40'0 0.0
2016-Jul-25 21:32N 37°44' W 025°40'0 0.0
2016-Jul-25 20:31N 37°44' W 025°40'0 0.0
2016-Jul-25 19:32N 37°44' W 025°40'0 0.0
2016-Jul-25 18:32N 37°44' W 025°40'0 0.0
2016-Jul-25 17:32N 37°44' W 025°40'0 0.0
2016-Jul-25 16:32N 37°44' W 025°40'0 0.0
2016-Jul-25 15:32N 37°44' W 025°40'0 0.0
2016-Jul-25 14:32N 37°44' W 025°40'0 0.0
2016-Jul-25 13:32N 37°44' W 025°40'0 0.0
2016-Jul-25 12:32N 37°44' W 025°40'0 0.0
2016-Jul-25 11:32N 37°44' W 025°40'0 0.0
2016-Jul-25 10:32N 37°44' W 025°40'0 0.0
2016-Jul-25 09:32N 37°44' W 025°40'0 0.0
2016-Jul-25 08:32N 37°44' W 025°40'0 0.0
2016-Jul-25 07:32N 37°44' W 025°40'0 0.0
2016-Jul-25 06:32N 37°44' W 025°40'0 0.0
2016-Jul-25 05:29N 37°44' W 025°40'0 0.0
2016-Jul-25 04:32N 37°44' W 025°40'0 0.0
2016-Jul-25 03:32N 37°44' W 025°40'0 0.0
2016-Jul-25 02:32N 37°44' W 025°40'0 0.0
2016-Jul-25 01:32N 37°44' W 025°40'0 0.0
2016-Jul-25 00:32N 37°44' W 025°40'0 0.0
2016-Jul-24 23:32N 37°44' W 025°40'0 0.0
2016-Jul-24 22:32N 37°44' W 025°40'0 0.0
2016-Jul-24 21:32N 37°44' W 025°40'0 0.0
2016-Jul-24 20:32N 37°44' W 025°40'0 0.0
2016-Jul-24 19:32N 37°44' W 025°40'0 0.0
2016-Jul-24 18:29N 37°44' W 025°40'0 0.0
2016-Jul-24 17:32N 37°44' W 025°40'0 0.0
2016-Jul-24 16:32N 37°44' W 025°40'0 0.0
2016-Jul-24 15:32N 37°44' W 025°40'0 0.0
2016-Jul-24 14:32N 37°44' W 025°40'0 0.0
2016-Jul-24 13:32N 37°44' W 025°40'0 0.0
2016-Jul-24 12:32N 37°44' W 025°40'0 0.0
2016-Jul-24 11:32N 37°44' W 025°40'0 0.0
2016-Jul-24 10:32N 37°44' W 025°40'0 0.0
2016-Jul-24 09:32N 37°44' W 025°40'0 0.0
2016-Jul-24 08:32N 37°44' W 025°40'0 0.0
2016-Jul-24 07:32N 37°44' W 025°40'0 0.0
2016-Jul-24 06:32N 37°44' W 025°40'0 0.0
2016-Jul-24 05:32N 37°44' W 025°40'0 0.0
2016-Jul-24 04:32N 37°44' W 025°40'0 0.0
2016-Jul-24 03:32N 37°44' W 025°40'0 0.0
2016-Jul-24 02:32N 37°44' W 025°40'0 0.0
2016-Jul-24 01:32N 37°44' W 025°40'0 0.0
2016-Jul-24 00:32N 37°44' W 025°40'0 0.0
2016-Jul-23 23:32N 37°44' W 025°40'0 0.0
2016-Jul-23 22:32N 37°44' W 025°40'0 0.0
2016-Jul-23 21:32N 37°44' W 025°40'0 0.0
2016-Jul-23 20:33N 37°44' W 025°40'6 6.1
2016-Jul-23 19:33N 37°38' W 025°37'7 6.9
2016-Jul-23 18:33N 37°32' W 025°34'7 7.4
2016-Jul-23 17:34N 37°26' W 025°29'7 6.8
2016-Jul-23 16:33N 37°20' W 025°25'7 6.5
2016-Jul-23 15:33N 37°14' W 025°22'7 6.6
2016-Jul-23 14:34N 37°08' W 025°18'7 6.7
2016-Jul-23 13:32N 37°02' W 025°14'6 6.6
2016-Jul-23 12:33N 36°56' W 025°10'1 1.0
2016-Jul-23 11:32N 36°57' W 025°09'0 0.0
2016-Jul-23 10:32N 36°57' W 025°09'0 0.0
2016-Jul-23 09:32N 36°57' W 025°09'0 0.0
2016-Jul-23 08:32N 36°57' W 025°09'0 0.0
2016-Jul-23 07:32N 36°57' W 025°09'0 0.0
2016-Jul-23 06:29N 36°57' W 025°09'0 0.0
2016-Jul-23 04:32N 36°57' W 025°09'0 0.0
2016-Jul-23 03:29N 36°57' W 025°09'0 0.0
2016-Jul-23 02:33N 36°57' W 025°09'0 0.0
2016-Jul-23 01:32N 36°57' W 025°09'3 3.1
2016-Jul-23 00:33N 36°58' W 025°12'5 5.2
2016-Jul-22 23:33N 37°03' W 025°15'5 5.3
2016-Jul-22 22:33N 37°07' W 025°18'5 5.4
2016-Jul-22 21:33N 37°13' W 025°20'5 5.1
2016-Jul-22 20:33N 37°18' W 025°22'6 5.5
2016-Jul-22 19:33N 37°23' W 025°24'5 5.1
2016-Jul-22 18:33N 37°27' W 025°28'5 4.8
2016-Jul-22 17:33N 37°31' W 025°31'5 5.1
2016-Jul-22 16:33N 37°36' W 025°33'5 5.2
2016-Jul-22 15:33N 37°41' W 025°36'4 4.4
2016-Jul-22 14:32N 37°44' W 025°40'0 0.0
2016-Jul-22 13:32N 37°44' W 025°40'0 0.0
2016-Jul-22 12:32N 37°44' W 025°40'0 0.0
2016-Jul-22 11:32N 37°44' W 025°40'0 0.0
2016-Jul-22 10:32N 37°44' W 025°40'0 0.0
2016-Jul-22 09:32N 37°44' W 025°40'0 0.0
2016-Jul-22 08:32N 37°44' W 025°40'0 0.0
2016-Jul-22 07:32N 37°44' W 025°40'0 0.0
2016-Jul-22 04:29N 37°44' W 025°40'0 0.0
2016-Jul-22 03:32N 37°44' W 025°40'0 0.0
2016-Jul-22 02:32N 37°44' W 025°40'0 0.0
2016-Jul-22 01:32N 37°44' W 025°40'0 0.0
2016-Jul-22 00:32N 37°44' W 025°40'0 0.0
2016-Jul-21 23:32N 37°44' W 025°40'0 0.0
2016-Jul-21 22:32N 37°44' W 025°40'0 0.0
2016-Jul-21 21:32N 37°44' W 025°40'0 0.0
2016-Jul-21 20:32N 37°44' W 025°40'1 1.3
2016-Jul-21 19:33N 37°43' W 025°39'7 6.8
2016-Jul-21 18:33N 37°37' W 025°36'7 6.7
2016-Jul-21 17:33N 37°31' W 025°33'7 6.9
2016-Jul-21 16:33N 37°25' W 025°29'6 6.3
2016-Jul-21 15:34N 37°19' W 025°25'6 6.4
2016-Jul-21 14:34N 37°13' W 025°22'7 6.6
2016-Jul-21 13:33N 37°07' W 025°18'6 6.5
2016-Jul-21 12:33N 37°01' W 025°15'6 6.3
2016-Jul-21 11:33N 36°56' W 025°10'1 0.9
2016-Jul-21 10:32N 36°57' W 025°09'0 0.0
2016-Jul-21 09:32N 36°57' W 025°09'0 0.0
2016-Jul-21 08:32N 36°57' W 025°09'0 0.0
2016-Jul-21 07:32N 36°57' W 025°09'0 0.0
2016-Jul-21 06:29N 36°57' W 025°09'0 0.0
2016-Jul-21 05:32N 36°57' W 025°09'0 0.0
2016-Jul-21 04:29N 36°57' W 025°09'0 0.0
2016-Jul-21 03:32N 36°57' W 025°09'0 0.0
2016-Jul-21 02:32N 36°57' W 025°09'0 0.0
2016-Jul-21 01:32N 36°57' W 025°09'0 0.0
2016-Jul-21 00:32N 36°57' W 025°09'3 3.3
2016-Jul-20 23:34N 36°58' W 025°12'6 5.9
2016-Jul-20 22:33N 37°04' W 025°16'6 5.8
2016-Jul-20 21:33N 37°09' W 025°19'6 5.7
2016-Jul-20 20:33N 37°14' W 025°21'6 5.9
2016-Jul-20 19:33N 37°20' W 025°23'6 5.6
2016-Jul-20 18:33N 37°25' W 025°27'6 5.6
2016-Jul-20 17:34N 37°30' W 025°30'6 5.9
2016-Jul-20 16:33N 37°35' W 025°34'6 6.0
2016-Jul-20 15:34N 37°40' W 025°37'5 4.5
2016-Jul-20 14:33N 37°44' W 025°40'0 0.0
2016-Jul-20 13:33N 37°44' W 025°40'0 0.0
2016-Jul-20 12:33N 37°44' W 025°40'0 0.0
2016-Jul-20 11:33N 37°44' W 025°40'0 0.0
2016-Jul-20 10:33N 37°44' W 025°40'0 0.0
2016-Jul-20 09:33N 37°44' W 025°40'0 0.2
2016-Jul-20 08:33N 37°44' W 025°40'0 0.0
2016-Jul-20 07:33N 37°44' W 025°40'0 0.0
2016-Jul-20 06:33N 37°44' W 025°40'0 0.0
2016-Jul-20 05:33N 37°44' W 025°40'0 0.0
2016-Jul-20 04:33N 37°44' W 025°40'0 0.0
2016-Jul-20 03:33N 37°44' W 025°40'0 0.0
2016-Jul-20 02:33N 37°44' W 025°40'0 0.0
2016-Jul-20 01:33N 37°44' W 025°40'0 0.0
2016-Jul-20 00:33N 37°44' W 025°40'0 0.0
2016-Jul-19 23:33N 37°44' W 025°40'0 0.0
2016-Jul-19 22:33N 37°44' W 025°40'0 0.0
2016-Jul-19 21:33N 37°44' W 025°40'4 3.9
2016-Jul-19 20:33N 37°41' W 025°38'6 6.3
2016-Jul-19 19:33N 37°35' W 025°34'6 5.8
2016-Jul-19 18:33N 37°30' W 025°30'6 5.9
2016-Jul-19 17:34N 37°25' W 025°28'6 6.0
2016-Jul-19 16:33N 37°19' W 025°24'6 5.7
2016-Jul-19 15:33N 37°14' W 025°22'6 5.8
2016-Jul-19 14:33N 37°09' W 025°19'6 5.6
2016-Jul-19 13:33N 37°04' W 025°16'6 5.7
2016-Jul-19 12:33N 36°59' W 025°12'3 3.4
2016-Jul-19 11:33N 36°57' W 025°09'0 0.0
2016-Jul-19 10:33N 36°57' W 025°09'0 0.0
2016-Jul-19 09:33N 36°57' W 025°09'0 0.0
2016-Jul-19 08:33N 36°57' W 025°09'0 0.0
2016-Jul-19 07:33N 36°57' W 025°09'10 3.5
2016-Jul-19 04:33N 37°06' W 025°14'5 5.5
2016-Jul-19 03:33N 37°11' W 025°17'5 5.4
2016-Jul-19 02:33N 37°16' W 025°19'5 5.4
2016-Jul-19 01:33N 37°21' W 025°23'5 4.7
2016-Jul-19 00:34N 37°25' W 025°26'6 5.6
2016-Jul-18 23:33N 37°30' W 025°28'5 5.2
2016-Jul-18 22:34N 37°35' W 025°31'5 5.4
2016-Jul-18 21:33N 37°39' W 025°35'6 5.6
2016-Jul-18 20:33N 37°44' W 025°39'1 0.7
2016-Jul-18 19:34N 37°44' W 025°40'0 0.0
2016-Jul-18 18:31N 37°44' W 025°40'0 0.0
2016-Jul-18 17:31N 37°44' W 025°40'0 0.0
2016-Jul-18 16:31N 37°44' W 025°40'0 0.0
2016-Jul-18 15:31N 37°44' W 025°40'0 0.0
2016-Jul-18 14:31N 37°44' W 025°40'0 0.0
2016-Jul-18 13:31N 37°44' W 025°40'0 0.0
2016-Jul-18 12:31N 37°44' W 025°40'0 0.0
2016-Jul-18 11:31N 37°44' W 025°40'0 0.0
2016-Jul-18 10:31N 37°44' W 025°40'0 0.0
2016-Jul-18 09:31N 37°44' W 025°40'0 0.0
2016-Jul-18 08:31N 37°44' W 025°40'0 0.0
2016-Jul-18 07:31N 37°44' W 025°40'0 0.0
2016-Jul-18 06:31N 37°44' W 025°40'0 0.0
2016-Jul-18 05:31N 37°44' W 025°40'0 0.0
2016-Jul-18 04:31N 37°44' W 025°40'0 0.0
2016-Jul-18 03:31N 37°44' W 025°40'0 0.0
2016-Jul-18 02:31N 37°44' W 025°40'0 0.0
2016-Jul-18 01:31N 37°44' W 025°40'0 0.0
2016-Jul-18 00:31N 37°44' W 025°40'0 0.0
2016-Jul-17 23:31N 37°44' W 025°40'0 0.0
2016-Jul-17 22:31N 37°44' W 025°40'  
Track history (hours):
 
Tides and Currents Weather Stations Pressure Air Temp Water Temp Dewpoint Dewpoint Depression Visibility Wind Speed Wind Dir Waves Ship Positions

Dragocidental

Last reported at 2016-Jul-27 21:33 UTC. Time now 2016-Jul-28 01:00 UTC.
Position N 37°34' W 025°30'.

Length 30 m.

Type: Dredging. MMSI: 204671360.

Date/timePositionNaut miles runAvg speedWind from/ knotsBaromVisibWave heightAir tempDewpointWater temp
2016-Jul-27 21:33N 37°34' W 025°30'6 5.7
2016-Jul-27 20:34N 37°29' W 025°25'6 5.9
2016-Jul-27 19:33N 37°24' W 025°21'6 5.7
2016-Jul-27 18:33N 37°20' W 025°17'5 5.2
2016-Jul-27 17:33N 37°15' W 025°14'5 5.0
2016-Jul-27 16:33N 37°11' W 025°10'5 5.1
2016-Jul-27 15:33N 37°07' W 025°07'5 5.4
2016-Jul-27 14:33N 37°02' W 025°03'5 4.9
2016-Jul-27 13:34N 36°58' W 025°01'6 1.9
2016-Jul-27 10:33N 36°56' W 025°07'1 1.4
2016-Jul-27 09:31N 36°57' W 025°09'0 0.1
2016-Jul-27 08:33N 36°57' W 025°09'0 0.1
2016-Jul-27 07:31N 36°57' W 025°09'0 0.0
2016-Jul-27 06:28N 36°57' W 025°09'0 0.0
2016-Jul-27 05:31N 36°57' W 025°09'0 0.0
2016-Jul-27 04:31N 36°57' W 025°09'0 0.0
2016-Jul-27 03:31N 36°57' W 025°09'0 0.0
2016-Jul-27 02:31N 36°57' W 025°09'0 0.0
2016-Jul-27 01:31N 36°57' W 025°09'0 0.0
2016-Jul-27 00:31N 36°57' W 025°09'0 0.0
2016-Jul-26 23:31N 36°57' W 025°09'0 0.0
2016-Jul-26 22:31N 36°57' W 025°09'0 0.0
2016-Jul-26 21:31N 36°57' W 025°09'0 0.2
2016-Jul-26 20:33N 36°56' W 025°09'5 5.0
2016-Jul-26 19:33N 37°01' W 025°12'6 5.5
2016-Jul-26 18:33N 37°06' W 025°14'5 5.3
2016-Jul-26 17:33N 37°11' W 025°17'5 5.1
2016-Jul-26 16:33N 37°16' W 025°19'5 4.9
2016-Jul-26 15:33N 37°20' W 025°22'6 5.6
2016-Jul-26 14:33N 37°25' W 025°24'6 5.7
2016-Jul-26 13:34N 37°30' W 025°27'5 5.2
2016-Jul-26 12:33N 37°35' W 025°31'5 5.2
2016-Jul-26 11:33N 37°39' W 025°35'5 5.2
2016-Jul-26 10:34N 37°43' W 025°38'1 1.4
2016-Jul-26 09:32N 37°44' W 025°40'0 0.0
2016-Jul-26 08:29N 37°44' W 025°40'0 0.0
2016-Jul-26 07:31N 37°44' W 025°40'0 0.0
2016-Jul-26 06:31N 37°44' W 025°40'0 0.0
2016-Jul-26 05:32N 37°44' W 025°40'0 0.0
2016-Jul-26 04:32N 37°44' W 025°40'0 0.0
2016-Jul-26 03:32N 37°44' W 025°40'0 0.0
2016-Jul-26 02:29N 37°44' W 025°40'0 0.0
2016-Jul-26 01:31N 37°44' W 025°40'0 0.0
2016-Jul-26 00:32N 37°44' W 025°40'0 0.0
2016-Jul-25 23:31N 37°44' W 025°40'0 0.0
2016-Jul-25 22:32N 37°44' W 025°40'0 0.0
2016-Jul-25 21:32N 37°44' W 025°40'0 0.0
2016-Jul-25 20:31N 37°44' W 025°40'0 0.0
2016-Jul-25 19:32N 37°44' W 025°40'0 0.0
2016-Jul-25 18:32N 37°44' W 025°40'0 0.0
2016-Jul-25 17:32N 37°44' W 025°40'0 0.0
2016-Jul-25 16:32N 37°44' W 025°40'0 0.0
2016-Jul-25 15:32N 37°44' W 025°40'0 0.0
2016-Jul-25 14:32N 37°44' W 025°40'0 0.0
2016-Jul-25 13:32N 37°44' W 025°40'0 0.0
2016-Jul-25 12:32N 37°44' W 025°40'0 0.0
2016-Jul-25 11:32N 37°44' W 025°40'0 0.0
2016-Jul-25 10:32N 37°44' W 025°40'0 0.0
2016-Jul-25 09:32N 37°44' W 025°40'0 0.0
2016-Jul-25 08:32N 37°44' W 025°40'0 0.0
2016-Jul-25 07:32N 37°44' W 025°40'0 0.0
2016-Jul-25 06:32N 37°44' W 025°40'0 0.0
2016-Jul-25 05:29N 37°44' W 025°40'0 0.0
2016-Jul-25 04:32N 37°44' W 025°40'0 0.0
2016-Jul-25 03:32N 37°44' W 025°40'0 0.0
2016-Jul-25 02:32N 37°44' W 025°40'0 0.0
2016-Jul-25 01:32N 37°44' W 025°40'0 0.0
2016-Jul-25 00:32N 37°44' W 025°40'0 0.0
2016-Jul-24 23:32N 37°44' W 025°40'0 0.0
2016-Jul-24 22:32N 37°44' W 025°40'0 0.0
2016-Jul-24 21:32N 37°44' W 025°40'0 0.0
2016-Jul-24 20:32N 37°44' W 025°40'0 0.0
2016-Jul-24 19:32N 37°44' W 025°40'0 0.0
2016-Jul-24 18:29N 37°44' W 025°40'0 0.0
2016-Jul-24 17:32N 37°44' W 025°40'0 0.0
2016-Jul-24 16:32N 37°44' W 025°40'0 0.0
2016-Jul-24 15:32N 37°44' W 025°40'0 0.0
2016-Jul-24 14:32N 37°44' W 025°40'0 0.0
2016-Jul-24 13:32N 37°44' W 025°40'0 0.0
2016-Jul-24 12:32N 37°44' W 025°40'0 0.0
2016-Jul-24 11:32N 37°44' W 025°40'0 0.0
2016-Jul-24 10:32N 37°44' W 025°40'0 0.0
2016-Jul-24 09:32N 37°44' W 025°40'0 0.0
2016-Jul-24 08:32N 37°44' W 025°40'0 0.0
2016-Jul-24 07:32N 37°44' W 025°40'0 0.0
2016-Jul-24 06:32N 37°44' W 025°40'0 0.0
2016-Jul-24 05:32N 37°44' W 025°40'0 0.0
2016-Jul-24 04:32N 37°44' W 025°40'0 0.0
2016-Jul-24 03:32N 37°44' W 025°40'0 0.0
2016-Jul-24 02:32N 37°44' W 025°40'0 0.0
2016-Jul-24 01:32N 37°44' W 025°40'0 0.0
2016-Jul-24 00:32N 37°44' W 025°40'0 0.0
2016-Jul-23 23:32N 37°44' W 025°40'0 0.0
2016-Jul-23 22:32N 37°44' W 025°40'0 0.0
2016-Jul-23 21:32N 37°44' W 025°40'0 0.0
2016-Jul-23 20:33N 37°44' W 025°40'6 6.1
2016-Jul-23 19:33N 37°38' W 025°37'7 6.9
2016-Jul-23 18:33N 37°32' W 025°34'7 7.4
2016-Jul-23 17:34N 37°26' W 025°29'7 6.8
2016-Jul-23 16:33N 37°20' W 025°25'7 6.5
2016-Jul-23 15:33N 37°14' W 025°22'7 6.6
2016-Jul-23 14:34N 37°08' W 025°18'7 6.7
2016-Jul-23 13:32N 37°02' W 025°14'6 6.6
2016-Jul-23 12:33N 36°56' W 025°10'1 1.0
2016-Jul-23 11:32N 36°57' W 025°09'0 0.0
2016-Jul-23 10:32N 36°57' W 025°09'0 0.0
2016-Jul-23 09:32N 36°57' W 025°09'0 0.0
2016-Jul-23 08:32N 36°57' W 025°09'0 0.0
2016-Jul-23 07:32N 36°57' W 025°09'0 0.0
2016-Jul-23 06:29N 36°57' W 025°09'0 0.0
2016-Jul-23 04:32N 36°57' W 025°09'0 0.0
2016-Jul-23 03:29N 36°57' W 025°09'0 0.0
2016-Jul-23 02:33N 36°57' W 025°09'0 0.0
2016-Jul-23 01:32N 36°57' W 025°09'3 3.1
2016-Jul-23 00:33N 36°58' W 025°12'5 5.2
2016-Jul-22 23:33N 37°03' W 025°15'5 5.3
2016-Jul-22 22:33N 37°07' W 025°18'5 5.4
2016-Jul-22 21:33N 37°13' W 025°20'5 5.1
2016-Jul-22 20:33N 37°18' W 025°22'6 5.5
2016-Jul-22 19:33N 37°23' W 025°24'5 5.1
2016-Jul-22 18:33N 37°27' W 025°28'5 4.8
2016-Jul-22 17:33N 37°31' W 025°31'5 5.1
2016-Jul-22 16:33N 37°36' W 025°33'5 5.2
2016-Jul-22 15:33N 37°41' W 025°36'4 4.4
2016-Jul-22 14:32N 37°44' W 025°40'0 0.0
2016-Jul-22 13:32N 37°44' W 025°40'0 0.0
2016-Jul-22 12:32N 37°44' W 025°40'0 0.0
2016-Jul-22 11:32N 37°44' W 025°40'0 0.0
2016-Jul-22 10:32N 37°44' W 025°40'0 0.0
2016-Jul-22 09:32N 37°44' W 025°40'0 0.0
2016-Jul-22 08:32N 37°44' W 025°40'0 0.0
2016-Jul-22 07:32N 37°44' W 025°40'0 0.0
2016-Jul-22 04:29N 37°44' W 025°40'0 0.0
2016-Jul-22 03:32N 37°44' W 025°40'0 0.0
2016-Jul-22 02:32N 37°44' W 025°40'0 0.0
2016-Jul-22 01:32N 37°44' W 025°40'0 0.0
2016-Jul-22 00:32N 37°44' W 025°40'0 0.0
2016-Jul-21 23:32N 37°44' W 025°40'0 0.0
2016-Jul-21 22:32N 37°44' W 025°40'0 0.0
2016-Jul-21 21:32N 37°44' W 025°40'0 0.0
2016-Jul-21 20:32N 37°44' W 025°40'1 1.3
2016-Jul-21 19:33N 37°43' W 025°39'7 6.8
2016-Jul-21 18:33N 37°37' W 025°36'7 6.7
2016-Jul-21 17:33N 37°31' W 025°33'7 6.9
2016-Jul-21 16:33N 37°25' W 025°29'6 6.3
2016-Jul-21 15:34N 37°19' W 025°25'6 6.4
2016-Jul-21 14:34N 37°13' W 025°22'7 6.6
2016-Jul-21 13:33N 37°07' W 025°18'6 6.5
2016-Jul-21 12:33N 37°01' W 025°15'6 6.3
2016-Jul-21 11:33N 36°56' W 025°10'1 0.9
2016-Jul-21 10:32N 36°57' W 025°09'0 0.0
2016-Jul-21 09:32N 36°57' W 025°09'0 0.0
2016-Jul-21 08:32N 36°57' W 025°09'0 0.0
2016-Jul-21 07:32N 36°57' W 025°09'0 0.0
2016-Jul-21 06:29N 36°57' W 025°09'0 0.0
2016-Jul-21 05:32N 36°57' W 025°09'0 0.0
2016-Jul-21 04:29N 36°57' W 025°09'0 0.0
2016-Jul-21 03:32N 36°57' W 025°09'0 0.0
2016-Jul-21 02:32N 36°57' W 025°09'0 0.0
2016-Jul-21 01:32N 36°57' W 025°09'0 0.0
2016-Jul-21 00:32N 36°57' W 025°09'3 3.3
2016-Jul-20 23:34N 36°58' W 025°12'6 5.9
2016-Jul-20 22:33N 37°04' W 025°16'6 5.8
2016-Jul-20 21:33N 37°09' W 025°19'6 5.7
2016-Jul-20 20:33N 37°14' W 025°21'6 5.9
2016-Jul-20 19:33N 37°20' W 025°23'6 5.6
2016-Jul-20 18:33N 37°25' W 025°27'6 5.6
2016-Jul-20 17:34N 37°30' W 025°30'6 5.9
2016-Jul-20 16:33N 37°35' W 025°34'6 6.0
2016-Jul-20 15:34N 37°40' W 025°37'5 4.5
2016-Jul-20 14:33N 37°44' W 025°40'0 0.0
2016-Jul-20 13:33N 37°44' W 025°40'0 0.0
2016-Jul-20 12:33N 37°44' W 025°40'0 0.0
2016-Jul-20 11:33N 37°44' W 025°40'0 0.0
2016-Jul-20 10:33N 37°44' W 025°40'0 0.0
2016-Jul-20 09:33N 37°44' W 025°40'0 0.2
2016-Jul-20 08:33N 37°44' W 025°40'0 0.0
2016-Jul-20 07:33N 37°44' W 025°40'0 0.0
2016-Jul-20 06:33N 37°44' W 025°40'0 0.0
2016-Jul-20 05:33N 37°44' W 025°40'0 0.0
2016-Jul-20 04:33N 37°44' W 025°40'0 0.0
2016-Jul-20 03:33N 37°44' W 025°40'0 0.0
2016-Jul-20 02:33N 37°44' W 025°40'0 0.0
2016-Jul-20 01:33N 37°44' W 025°40'0 0.0
2016-Jul-20 00:33N 37°44' W 025°40'0 0.0
2016-Jul-19 23:33N 37°44' W 025°40'0 0.0
2016-Jul-19 22:33N 37°44' W 025°40'0 0.0
2016-Jul-19 21:33N 37°44' W 025°40'4 3.9
2016-Jul-19 20:33N 37°41' W 025°38'6 6.3
2016-Jul-19 19:33N 37°35' W 025°34'6 5.8
2016-Jul-19 18:33N 37°30' W 025°30'6 5.9
2016-Jul-19 17:34N 37°25' W 025°28'6 6.0
2016-Jul-19 16:33N 37°19' W 025°24'6 5.7
2016-Jul-19 15:33N 37°14' W 025°22'6 5.8
2016-Jul-19 14:33N 37°09' W 025°19'6 5.6
2016-Jul-19 13:33N 37°04' W 025°16'6 5.7
2016-Jul-19 12:33N 36°59' W 025°12'3 3.4
2016-Jul-19 11:33N 36°57' W 025°09'0 0.0
2016-Jul-19 10:33N 36°57' W 025°09'0 0.0
2016-Jul-19 09:33N 36°57' W 025°09'0 0.0
2016-Jul-19 08:33N 36°57' W 025°09'0 0.0
2016-Jul-19 07:33N 36°57' W 025°09'10 3.5
2016-Jul-19 04:33N 37°06' W 025°14'5 5.5
2016-Jul-19 03:33N 37°11' W 025°17'5 5.4
2016-Jul-19 02:33N 37°16' W 025°19'5 5.4
2016-Jul-19 01:33N 37°21' W 025°23'5 4.7
2016-Jul-19 00:34N 37°25' W 025°26'6 5.6
2016-Jul-18 23:33N 37°30' W 025°28'5 5.2
2016-Jul-18 22:34N 37°35' W 025°31'5 5.4
2016-Jul-18 21:33N 37°39' W 025°35'6 5.6
2016-Jul-18 20:33N 37°44' W 025°39'1 0.7
2016-Jul-18 19:34N 37°44' W 025°40'0 0.0
2016-Jul-18 18:31N 37°44' W 025°40'0 0.0
2016-Jul-18 17:31N 37°44' W 025°40'0 0.0
2016-Jul-18 16:31N 37°44' W 025°40'0 0.0
2016-Jul-18 15:31N 37°44' W 025°40'0 0.0
2016-Jul-18 14:31N 37°44' W 025°40'0 0.0
2016-Jul-18 13:31N 37°44' W 025°40'0 0.0
2016-Jul-18 12:31N 37°44' W 025°40'0 0.0
2016-Jul-18 11:31N 37°44' W 025°40'0 0.0
2016-Jul-18 10:31N 37°44' W 025°40'0 0.0
2016-Jul-18 09:31N 37°44' W 025°40'0 0.0
2016-Jul-18 08:31N 37°44' W 025°40'0 0.0
2016-Jul-18 07:31N 37°44' W 025°40'0 0.0
2016-Jul-18 06:31N 37°44' W 025°40'0 0.0
2016-Jul-18 05:31N 37°44' W 025°40'0 0.0
2016-Jul-18 04:31N 37°44' W 025°40'0 0.0
2016-Jul-18 03:31N 37°44' W 025°40'0 0.0
2016-Jul-18 02:31N 37°44' W 025°40'0 0.0
2016-Jul-18 01:31N 37°44' W 025°40'0 0.0
2016-Jul-18 00:31N 37°44' W 025°40'0 0.0
2016-Jul-17 23:31N 37°44' W 025°40'0 0.0
2016-Jul-17 22:31N 37°44' W 025°40'  

Dump ship's entire track history